Terminal Aerodrome Forecast
Issued by NWS Miami, FL

Home | Current Version | Previous Version | Text Only | Print | Product List | Glossary On
Versions: 1 2 3 4 5 6 7 8 9 10 11 12 13 14 15 16 17 18 19 20 21 22 23 24 25 26
000
FTUS42 KMFL 231134
TAFPBI
TAF
KPBI 231134Z 2312/2412 15004KT P6SM VCSH FEW025 SCT050
     FM231600 14008KT P6SM SHRA VCTS SCT025CB BKN040
     FM232000 16012KT 4SM SHRA VCTS SCT025CB BKN050
     FM240400 25003KT P6SM VCSH BKN030 OVC100=

USA.gov is the U.S. government's official web portal to all federal, state and local government web resources and services.